Logan Cache Airport
KLGU : now visible

Airfield :











YOU CAN JOIN US ON...

 
LOGIN :

Register | Disclaimer

   EN    FR    IT 

 









Legend :    VFR   Marginal VFR   IFR   Intensive IFR   Very Intensive IFR
Visi :
Ceiling :
>= 8 km
>= 3000ft
5 to 8 km
1000 to 3000 ft
1500m to 5 km
500 to 1000 ft
800 to 1500m
200 to 500 ft
< 800m
< 200 ft
Symbols :   Thunderstorms  Fog  Heavy snow  Heavy precipitations  Wind > 20 kt






- Airport Elevation : 4457 ft


KLGU - Logan Cache

CURRENT METAR :
  • 110651Z AUTO 00000KT 10SM CLR 17/09 A3000 RMK AO2 SLP108 T01670089 403280100

EXPIRED METARs :
  • 110551Z AUTO 00000KT 10SM CLR 19/07 A3000 RMK AO2 SLP107 T01890072 10317 20183 51008
  • 110451Z AUTO 16005KT 10SM CLR 24/04 A2999 RMK AO2 SLP099 T02440044

TAF KLGU
Valid from the 11 at 06:00 until the 12 at 06:00 UTC


110530Z 1106/1206 VRB04KT P6SM FEW200
FM111900 23006KT P6SM FEW200
KZLC FIR / North America



MET'MAP, your aeronautical weather chart ! - Copyright ORBIFLY December 2007 - Disclaimer

ORBIFLY MET'MAP TEAM :

Programming & Development : Alexandra Zaïnal
Concept & original design : Baudouin d'Aumeries
Assistance for programming : Marc-Olivier Méhu
Technical & hardware support : Manuel Goepfert

Contact : metmap@orbifly.com




SOURCES & CREDITS :

   NOAA       Earth
Advisory